Rich, Mississippi
Current Conditions -  °F | °C
As of 2:15 AM on Monday 22 Dec 2014 (Local Time) from KCKM Reporting Station
Overcast Overcast  
Wind Chill:   Ceiling: 300
Heat Index:   Visibility: 2.5mi
Dew Point:   Wind: 8mph
Humidity: 100%   Direction: 130°SE
Pressure: 29.89"   Gusts: NA
Location:  34.3919°N, 90.4874°W
Report Text: KCKM 220815Z AUTO 13007KT 2 1/2SM OVC003 08/08 A2989 RMK AO1
Loading
Personal Weather Stations






























Interactive Weather Map New forecast layout! Learn more

10-Day Weather Forecast

Advertisements
Track Severe Weather on mobile